Time;durP1;ratioP1;P1;durP2;ratioP2;P2;SDS_P1;SDS_P2;PMS_P1;PMS_P2;Temp;Humidity;BMP_temperature;BMP_pressure;BME280_temperature;BME280_humidity;BME280_pressure;Samples;Min_cycle;Max_cycle;Signal;HPM_P1;HPM_P2
2024/01/04 00:02:01;;;;;;;4.43;1.50;;;;;;;7.87;70.81;97077.91;4983774;28;103525;-74
2024/01/04 00:04:31;;;;;;;2.88;0.90;;;;;;;7.86;71.20;97066.56;4975710;28;102851;-74
2024/01/04 00:06:59;;;;;;;4.00;1.48;;;;;;;7.85;71.82;97074.63;4992138;28;103224;-74
2024/01/04 00:09:27;;;;;;;4.18;1.50;;;;;;;7.69;72.38;97079.19;4998468;28;103395;-74
2024/01/04 00:11:58;;;;;;;2.67;1.25;;;;;;;7.67;72.80;97078.56;4998455;28;103015;-74
2024/01/04 00:14:26;;;;;;;3.28;1.40;;;;;;;7.63;72.51;97085.22;4985116;28;104139;-74
2024/01/04 00:16:54;;;;;;;2.42;1.30;;;;;;;7.62;72.82;97086.22;4995486;28;103213;-74
2024/01/04 00:19:22;;;;;;;6.28;1.40;;;;;;;7.63;73.77;97093.13;4996157;28;103335;-74
2024/01/04 00:21:51;;;;;;;2.55;1.30;;;;;;;7.62;74.02;97105.50;4995813;28;102635;-74
2024/01/04 00:24:20;;;;;;;2.47;1.50;;;;;;;7.62;74.27;97102.00;4996760;28;102666;-74
2024/01/04 00:26:47;;;;;;;4.20;1.27;;;;;;;7.59;74.42;97099.78;4992531;28;103307;-74
2024/01/04 00:29:16;;;;;;;2.40;1.30;;;;;;;7.63;73.64;97098.38;4979151;28;103297;-75
2024/01/04 00:31:44;;;;;;;1.63;0.95;;;;;;;7.64;74.47;97106.09;4995955;28;102664;-75
2024/01/04 00:34:12;;;;;;;3.38;1.55;;;;;;;7.60;74.57;97098.78;4979604;28;104386;-74
2024/01/04 00:36:41;;;;;;;2.22;1.10;;;;;;;7.60;74.77;97098.78;4980543;28;102718;-75
2024/01/04 00:39:11;;;;;;;4.13;1.85;;;;;;;7.62;74.62;97097.59;4986260;28;103229;-74
2024/01/04 00:41:39;;;;;;;2.53;1.40;;;;;;;7.45;74.68;97089.13;4999697;28;102644;-75
2024/01/04 00:44:08;;;;;;;2.35;1.27;;;;;;;7.47;74.35;97100.25;5002932;28;104695;-74
2024/01/04 00:46:36;;;;;;;3.42;1.65;;;;;;;7.52;74.66;97096.25;4983817;28;103280;-74
2024/01/04 00:49:04;;;;;;;4.07;1.60;;;;;;;7.27;75.50;97110.59;4987576;28;103279;-74
2024/01/04 00:51:33;;;;;;;3.25;1.27;;;;;;;7.44;74.55;97102.44;4981571;28;102555;-75
2024/01/04 00:54:02;;;;;;;4.85;1.67;;;;;;;7.51;74.01;97113.06;4999872;28;102897;-75
2024/01/04 00:56:33;;;;;;;4.43;1.85;;;;;;;7.38;74.86;97111.91;4983106;28;103210;-74
2024/01/04 00:59:02;;;;;;;3.67;1.65;;;;;;;7.29;75.45;97119.13;4981870;28;103302;-75
2024/01/04 01:01:32;;;;;;;3.20;1.50;;;;;;;7.34;75.69;97120.41;4997877;28;103254;-74
2024/01/04 01:04:00;;;;;;;4.50;1.50;;;;;;;7.26;75.09;97123.97;4986653;28;102617;-74
2024/01/04 01:06:29;;;;;;;7.25;1.50;;;;;;;7.24;75.03;97137.28;4994293;28;103194;-75
2024/01/04 01:08:57;;;;;;;3.30;1.75;;;;;;;7.29;75.37;97142.00;4983069;28;105720;-74
2024/01/04 01:11:26;;;;;;;3.42;1.50;;;;;;;7.25;75.38;97138.13;4985228;28;103144;-75
2024/01/04 01:13:55;;;;;;;7.00;1.45;;;;;;;7.17;75.21;97146.13;4984698;28;103920;-74
2024/01/04 01:16:23;;;;;;;2.80;1.25;;;;;;;7.19;75.30;97160.75;5000981;28;102488;-74
2024/01/04 01:18:52;;;;;;;2.47;1.50;;;;;;;7.14;76.38;97161.28;4987030;28;103376;-74
2024/01/04 01:21:20;;;;;;;3.63;1.40;;;;;;;7.02;77.05;97157.50;4980237;28;102581;-74
2024/01/04 01:23:48;;;;;;;1.73;1.30;;;;;;;7.05;76.83;97145.75;4982502;28;102657;-75
2024/01/04 01:26:17;;;;;;;3.63;1.50;;;;;;;7.08;76.44;97138.31;4998505;28;103386;-74
2024/01/04 01:28:45;;;;;;;5.65;1.30;;;;;;;7.07;76.73;97141.16;4981123;28;104196;-75
2024/01/04 01:31:18;;;;;;;2.65;1.48;;;;;;;7.18;75.61;97145.94;4990942;28;102679;-77
2024/01/04 01:33:47;;;;;;;2.47;1.30;;;;;;;7.07;76.40;97131.41;5002707;28;102488;-75
2024/01/04 01:36:16;;;;;;;5.47;1.50;;;;;;;7.00;76.11;97138.44;4988692;28;104203;-75
2024/01/04 01:38:45;;;;;;;3.60;1.55;;;;;;;7.08;75.85;97122.53;4989276;28;103170;-75
2024/01/04 01:41:13;;;;;;;2.05;1.20;;;;;;;7.08;76.48;97133.06;5004843;28;102622;-75
2024/01/04 01:43:42;;;;;;;2.40;1.40;;;;;;;7.00;76.36;97141.06;4983795;28;102773;-75
2024/01/04 01:46:10;;;;;;;3.88;1.50;;;;;;;6.94;76.57;97147.06;4983044;28;103313;-75
2024/01/04 01:48:40;;;;;;;3.97;1.77;;;;;;;6.98;76.41;97158.84;4999710;28;103221;-75
2024/01/04 01:51:10;;;;;;;6.28;1.60;;;;;;;6.99;76.32;97159.69;5002938;28;102682;-76
2024/01/04 01:53:39;;;;;;;2.95;1.40;;;;;;;6.99;76.58;97171.00;4985257;28;102675;-76
2024/01/04 01:56:07;;;;;;;3.22;1.40;;;;;;;6.91;77.21;97186.91;4997437;28;103268;-76
2024/01/04 01:58:37;;;;;;;4.95;1.30;;;;;;;6.98;77.12;97177.28;4983011;28;104253;-76
2024/01/04 02:01:06;;;;;;;5.05;1.65;;;;;;;7.01;76.71;97195.34;4981537;28;102749;-77
2024/01/04 02:03:34;;;;;;;3.10;1.42;;;;;;;6.88;77.21;97163.59;4995313;28;102785;-75
2024/01/04 02:06:04;;;;;;;3.92;1.40;;;;;;;6.82;77.63;97183.53;4999577;28;103225;-75
2024/01/04 02:08:33;;;;;;;1.55;1.05;;;;;;;6.78;77.34;97184.91;4980898;28;104296;-74
2024/01/04 02:11:01;;;;;;;2.70;1.30;;;;;;;6.72;76.88;97189.09;4986974;28;102623;-74
2024/01/04 02:13:29;;;;;;;2.08;1.30;;;;;;;6.86;77.02;97186.63;4987284;28;102851;-76
2024/01/04 02:15:58;;;;;;;1.73;1.05;;;;;;;6.72;76.57;97170.66;4981656;28;102799;-76
2024/01/04 02:18:27;;;;;;;0.82;0.70;;;;;;;6.77;76.47;97193.78;4997776;28;103312;-76
2024/01/04 02:20:55;;;;;;;1.17;0.82;;;;;;;6.86;75.91;97203.22;4985125;28;102692;-74
2024/01/04 02:23:25;;;;;;;0.77;0.77;;;;;;;6.91;75.63;97200.06;4987779;28;102746;-75
2024/01/04 02:25:53;;;;;;;1.15;0.80;;;;;;;6.84;75.64;97193.88;4981487;28;103340;-75
2024/01/04 02:28:24;;;;;;;1.90;1.10;;;;;;;6.85;75.97;97213.94;4981333;28;103321;-75
2024/01/04 02:30:53;;;;;;;1.95;1.02;;;;;;;6.93;75.26;97219.13;4986444;28;102800;-76
2024/01/04 02:33:21;;;;;;;2.08;1.20;;;;;;;6.99;74.14;97226.28;4997822;28;103115;-75
2024/01/04 02:35:49;;;;;;;3.53;0.98;;;;;;;7.01;74.70;97232.22;5006386;28;104339;-76
2024/01/04 02:38:18;;;;;;;1.00;0.90;;;;;;;7.05;74.95;97228.22;4982516;28;103422;-76
2024/01/04 02:40:47;;;;;;;1.95;0.90;;;;;;;7.05;75.08;97225.56;4991214;28;102696;-75
2024/01/04 02:43:19;;;;;;;0.88;0.80;;;;;;;7.06;74.88;97239.53;4983408;28;102773;-77
2024/01/04 02:45:53;;;;;;;1.88;0.93;;;;;;;6.92;75.51;97234.09;5004805;28;103477;-76
2024/01/04 02:48:22;;;;;;;0.75;0.75;;;;;;;6.97;74.45;97241.47;4986096;28;103434;-75
2024/01/04 02:50:50;;;;;;;1.75;0.63;;;;;;;6.90;74.11;97237.91;4999429;28;102887;-77
2024/01/04 02:53:19;;;;;;;0.60;0.60;;;;;;;6.94;74.13;97226.00;4984801;28;103967;-77
2024/01/04 02:55:48;;;;;;;1.10;0.75;;;;;;;6.97;74.06;97230.94;4983045;28;103187;-78
2024/01/04 02:58:16;;;;;;;0.57;0.57;;;;;;;6.91;74.02;97237.72;4983767;28;104389;-77
2024/01/04 03:00:44;;;;;;;0.93;0.80;;;;;;;6.95;73.26;97232.91;4986101;28;102553;-77
2024/01/04 03:03:13;;;;;;;0.70;0.70;;;;;;;6.90;73.95;97230.00;5001697;28;102770;-77
2024/01/04 03:05:41;;;;;;;0.60;0.60;;;;;;;6.92;73.44;97222.75;4982471;28;104154;-77
2024/01/04 03:08:09;;;;;;;0.50;0.50;;;;;;;6.97;72.93;97225.69;5003566;28;104185;-77
2024/01/04 03:10:38;;;;;;;0.60;0.60;;;;;;;6.88;73.54;97229.41;5000707;28;102660;-77
2024/01/04 03:13:08;;;;;;;0.77;0.77;;;;;;;6.94;73.35;97241.81;5003750;28;103252;-77
2024/01/04 03:15:36;;;;;;;1.00;0.75;;;;;;;6.83;72.87;97237.00;5003431;28;103376;-78
2024/01/04 03:18:05;;;;;;;0.70;0.70;;;;;;;6.87;74.06;97230.38;5000455;28;103347;-77
2024/01/04 03:20:33;;;;;;;0.70;0.70;;;;;;;6.92;73.58;97243.81;4982277;28;102696;-76
2024/01/04 03:23:01;;;;;;;0.82;0.70;;;;;;;6.96;73.49;97240.63;4999257;28;102672;-76
2024/01/04 03:25:29;;;;;;;2.42;1.20;;;;;;;6.95;73.49;97238.19;4988954;28;103242;-76
2024/01/04 03:27:58;;;;;;;2.33;1.00;;;;;;;6.99;73.18;97246.53;4982352;28;104577;-76
2024/01/04 03:30:27;;;;;;;0.85;0.80;;;;;;;7.02;73.56;97239.13;5005365;28;102523;-76
2024/01/04 03:32:56;;;;;;;2.55;1.20;;;;;;;7.03;73.63;97240.72;4991295;28;102850;-77
2024/01/04 03:35:25;;;;;;;1.40;1.10;;;;;;;7.02;73.91;97241.75;4986988;28;104509;-77
2024/01/04 03:37:53;;;;;;;3.38;0.90;;;;;;;7.05;73.84;97230.84;4981103;28;103073;-75
2024/01/04 03:40:21;;;;;;;1.52;1.13;;;;;;;7.10;73.44;97240.81;5004480;28;102602;-75
2024/01/04 03:42:49;;;;;;;1.05;0.85;;;;;;;7.03;73.66;97243.34;4987795;28;102773;-76
2024/01/04 03:45:17;;;;;;;1.85;0.82;;;;;;;7.04;74.26;97244.19;5001504;28;103826;-74
2024/01/04 03:47:47;;;;;;;1.50;1.00;;;;;;;7.08;73.88;97243.63;4988557;28;103217;-75
2024/01/04 03:50:16;;;;;;;2.83;1.30;;;;;;;7.02;73.65;97233.84;4981541;28;102769;-76
2024/01/04 03:52:44;;;;;;;4.10;1.55;;;;;;;7.05;73.65;97251.06;4981436;28;102813;-75
2024/01/04 03:55:15;;;;;;;2.13;1.25;;;;;;;7.11;74.14;97238.03;4981022;28;103208;-76
2024/01/04 03:57:44;;;;;;;3.28;1.30;;;;;;;7.09;73.91;97241.84;4985110;28;103237;-74
2024/01/04 04:00:13;;;;;;;3.55;1.20;;;;;;;7.15;74.18;97254.25;4983531;28;102642;-75
2024/01/04 04:02:41;;;;;;;2.97;1.30;;;;;;;7.10;73.70;97262.72;5000919;28;103895;-75
2024/01/04 04:05:11;;;;;;;3.70;1.45;;;;;;;7.11;73.69;97268.78;5001092;28;104252;-75
2024/01/04 04:07:39;;;;;;;4.85;1.20;;;;;;;7.21;73.84;97269.34;4996875;28;103228;-75
2024/01/04 04:10:09;;;;;;;5.55;1.20;;;;;;;7.31;73.57;97276.97;4980346;28;102645;-75
2024/01/04 04:12:37;;;;;;;3.20;1.38;;;;;;;7.35;73.71;97274.78;4983350;28;103910;-75
2024/01/04 04:15:06;;;;;;;4.65;1.20;;;;;;;7.39;73.22;97287.41;4999251;28;104597;-76
2024/01/04 04:17:36;;;;;;;3.22;1.50;;;;;;;7.49;72.50;97291.56;4998458;28;103241;-76
2024/01/04 04:20:05;;;;;;;3.58;1.80;;;;;;;7.54;72.77;97281.31;4984451;28;103074;-76
2024/01/04 04:22:35;;;;;;;3.85;1.58;;;;;;;7.59;72.35;97276.31;5007123;28;102598;-76
2024/01/04 04:25:04;;;;;;;5.03;1.40;;;;;;;7.65;72.12;97286.13;4991252;28;103870;-75
2024/01/04 04:27:32;;;;;;;3.22;1.50;;;;;;;7.60;72.07;97289.28;4980095;28;104203;-75
2024/01/04 04:30:00;;;;;;;2.75;1.40;;;;;;;7.66;71.24;97284.28;4983817;28;102715;-75
2024/01/04 04:32:29;;;;;;;4.05;1.45;;;;;;;7.66;71.48;97293.00;4986656;28;102780;-76
2024/01/04 04:34:58;;;;;;;4.15;1.40;;;;;;;7.71;71.03;97287.19;5002065;28;104121;-76
2024/01/04 04:37:26;;;;;;;4.95;1.75;;;;;;;7.76;71.57;97283.00;4979981;28;104198;-75
2024/01/04 04:39:55;;;;;;;7.75;1.88;;;;;;;7.75;70.63;97291.09;4985611;28;102685;-76
2024/01/04 04:42:24;;;;;;;4.68;1.48;;;;;;;7.74;71.70;97290.28;4981681;28;102704;-76
2024/01/04 04:44:54;;;;;;;2.83;1.60;;;;;;;7.75;72.92;97305.06;4993454;28;103910;-75
2024/01/04 04:47:22;;;;;;;6.85;1.83;;;;;;;7.69;72.39;97316.38;4996205;28;103331;-76
2024/01/04 04:49:53;;;;;;;3.75;1.90;;;;;;;7.73;72.37;97303.63;4986599;28;102736;-75
2024/01/04 04:52:21;;;;;;;2.10;1.15;;;;;;;7.67;71.99;97304.38;4996692;28;102767;-76
2024/01/04 04:54:49;;;;;;;4.68;1.70;;;;;;;7.69;72.09;97318.16;4996624;28;103366;-76
2024/01/04 04:57:18;;;;;;;5.60;1.80;;;;;;;7.73;72.38;97315.00;4982660;28;104143;-75
2024/01/04 04:59:47;;;;;;;2.75;1.33;;;;;;;7.64;73.17;97316.09;4980264;28;102712;-76
2024/01/04 05:02:15;;;;;;;2.20;1.25;;;;;;;7.66;73.24;97316.72;4977568;28;102746;-76
2024/01/04 05:04:45;;;;;;;6.68;1.55;;;;;;;7.54;73.80;97329.53;4985080;28;103068;-75
2024/01/04 05:07:13;;;;;;;4.65;1.52;;;;;;;7.58;73.96;97317.63;4981818;28;104800;-75
2024/01/04 05:09:41;;;;;;;3.30;2.22;;;;;;;7.54;73.78;97331.38;4999764;28;102640;-75
2024/01/04 05:12:09;;;;;;;3.25;1.67;;;;;;;7.55;73.76;97336.44;4988603;28;102659;-76
2024/01/04 05:14:39;;;;;;;2.58;1.40;;;;;;;7.56;74.56;97334.63;5001018;28;103951;-76
2024/01/04 05:17:07;;;;;;;3.28;1.60;;;;;;;7.54;74.47;97344.53;4995973;28;103350;-76
2024/01/04 05:19:38;;;;;;;2.25;1.20;;;;;;;7.49;74.54;97344.25;4987188;28;102696;-76
2024/01/04 05:22:06;;;;;;;4.93;1.98;;;;;;;7.35;74.33;97352.00;5004365;28;102728;-76
2024/01/04 05:24:37;;;;;;;5.28;1.40;;;;;;;7.43;74.73;97366.88;4998883;28;103746;-77
2024/01/04 05:27:05;;;;;;;3.22;1.30;;;;;;;7.41;74.52;97369.69;5005040;28;104271;-76
2024/01/04 05:29:34;;;;;;;2.22;1.30;;;;;;;7.38;73.51;97364.78;4985145;28;102744;-74
2024/01/04 05:32:04;;;;;;;5.00;1.60;;;;;;;7.41;74.43;97374.16;4983677;28;104264;-75
2024/01/04 05:34:32;;;;;;;3.53;1.88;;;;;;;7.36;74.18;97371.22;4981010;28;104385;-75
2024/01/04 05:37:01;;;;;;;5.75;1.58;;;;;;;7.37;73.63;97373.69;4987364;28;103494;-75
2024/01/04 05:39:29;;;;;;;2.80;1.60;;;;;;;7.37;74.24;97376.31;4993636;28;102867;-75
2024/01/04 05:41:57;;;;;;;5.07;1.50;;;;;;;7.35;73.68;97375.69;4997927;28;103735;-75
2024/01/04 05:44:25;;;;;;;2.70;1.40;;;;;;;7.37;73.51;97386.03;4982155;28;103231;-75
2024/01/04 05:46:53;;;;;;;3.63;1.55;;;;;;;7.40;73.50;97389.16;4982557;28;103233;-75
2024/01/04 05:49:23;;;;;;;2.83;1.40;;;;;;;7.38;73.55;97393.75;5004328;28;102697;-76
2024/01/04 05:51:52;;;;;;;4.57;1.60;;;;;;;7.38;73.20;97395.59;5001927;28;104566;-76
2024/01/04 05:54:20;;;;;;;4.03;1.83;;;;;;;7.43;73.52;97391.41;4995300;28;103264;-75
2024/01/04 05:56:49;;;;;;;4.53;1.42;;;;;;;7.40;73.90;97404.94;4998900;28;103370;-74
2024/01/04 05:59:21;;;;;;;3.08;1.23;;;;;;;7.35;73.14;97406.47;5000954;28;102667;-75
2024/01/04 06:01:49;;;;;;;1.65;1.27;;;;;;;7.42;73.03;97415.31;4994049;28;104339;-76
2024/01/04 06:04:17;;;;;;;5.22;1.65;;;;;;;7.45;73.47;97415.78;4983415;28;104509;-75
2024/01/04 06:06:47;;;;;;;2.67;1.52;;;;;;;7.47;72.67;97426.94;5000761;28;104485;-75
2024/01/04 06:09:20;;;;;;;2.75;1.58;;;;;;;7.38;72.69;97425.38;4982259;28;102658;-75
2024/01/04 06:11:50;;;;;;;3.70;1.60;;;;;;;7.41;73.17;97427.63;4998368;28;102629;-75
2024/01/04 06:14:20;;;;;;;3.40;1.50;;;;;;;7.43;73.61;97430.13;4981587;28;104073;-76
2024/01/04 06:16:48;;;;;;;4.28;1.55;;;;;;;7.42;73.38;97429.28;4994333;28;103054;-74
2024/01/04 06:19:19;;;;;;;3.00;1.60;;;;;;;7.40;73.44;97441.81;4999334;28;103029;-75
2024/01/04 06:21:49;;;;;;;4.65;1.67;;;;;;;7.42;73.53;97428.47;4983916;28;102617;-77
2024/01/04 06:24:18;;;;;;;6.70;1.88;;;;;;;7.48;73.10;97443.56;4987719;28;103244;-76
2024/01/04 06:26:47;;;;;;;5.78;1.70;;;;;;;7.46;72.07;97440.28;5005343;28;104122;-77
2024/01/04 06:29:15;;;;;;;5.15;1.67;;;;;;;7.44;72.25;97442.25;5005117;28;102731;-76
2024/01/04 06:31:44;;;;;;;7.05;1.70;;;;;;;7.44;72.53;97463.34;5006621;28;103427;-76
2024/01/04 06:34:13;;;;;;;4.55;1.80;;;;;;;7.54;72.08;97458.63;4990713;28;103446;-77
2024/01/04 06:36:42;;;;;;;3.88;1.70;;;;;;;7.52;72.39;97465.09;4990262;28;102929;-75
2024/01/04 06:39:12;;;;;;;5.07;1.75;;;;;;;7.55;71.95;97465.56;4990719;28;102555;-76
2024/01/04 06:41:44;;;;;;;3.72;1.30;;;;;;;7.45;72.63;97471.09;5006009;28;103893;-74
2024/01/04 06:44:13;;;;;;;3.88;1.40;;;;;;;7.56;72.21;97466.34;5005611;28;102746;-75
2024/01/04 06:46:42;;;;;;;3.85;1.60;;;;;;;7.46;72.93;97472.69;4989935;28;102602;-74
2024/01/04 06:49:10;;;;;;;3.95;1.90;;;;;;;7.57;72.54;97483.81;5003031;28;102908;-75
2024/01/04 06:51:37;;;;;;;5.07;2.47;;;;;;;7.56;72.20;97487.44;5005526;28;103937;-75
2024/01/04 06:54:08;;;;;;;5.40;1.92;;;;;;;7.50;71.85;97493.44;5004286;28;103251;-75
2024/01/04 06:56:37;;;;;;;3.90;1.63;;;;;;;7.57;71.91;97504.88;5001287;28;103194;-74
2024/01/04 06:59:06;;;;;;;4.95;1.80;;;;;;;7.58;71.91;97503.91;5005137;28;102678;-75
2024/01/04 07:01:34;;;;;;;5.70;1.80;;;;;;;7.60;71.02;97509.81;5004720;28;102775;-73
2024/01/04 07:04:05;;;;;;;5.28;1.50;;;;;;;7.59;71.04;97511.63;5000772;28;104467;-73
2024/01/04 07:06:33;;;;;;;4.00;1.50;;;;;;;7.57;70.54;97504.88;5005815;28;103285;-73
2024/01/04 07:09:02;;;;;;;3.25;1.50;;;;;;;7.57;70.83;97515.44;4984242;28;102959;-75
2024/01/04 07:11:30;;;;;;;5.30;1.85;;;;;;;7.62;70.53;97526.25;4988248;28;103773;-74
2024/01/04 07:14:00;;;;;;;3.75;1.52;;;;;;;7.61;70.89;97528.09;4981000;28;103281;-74
2024/01/04 07:16:31;;;;;;;4.43;1.55;;;;;;;7.53;70.84;97532.59;4984704;28;103465;-74
2024/01/04 07:18:59;;;;;;;2.75;1.67;;;;;;;7.50;70.55;97532.97;4981768;28;102691;-74
2024/01/04 07:21:28;;;;;;;6.68;1.50;;;;;;;7.58;70.99;97543.44;5004167;28;103748;-72
2024/01/04 07:23:56;;;;;;;2.85;1.55;;;;;;;7.61;70.84;97543.91;5001616;28;103251;-74
2024/01/04 07:26:24;;;;;;;3.95;1.60;;;;;;;7.55;70.34;97541.16;5000709;28;103269;-73
2024/01/04 07:28:52;;;;;;;5.22;1.40;;;;;;;7.56;71.11;97551.50;5000753;28;102769;-71
2024/01/04 07:31:22;;;;;;;2.97;1.77;;;;;;;7.61;70.34;97556.25;4980996;28;103039;-75
2024/01/04 07:33:50;;;;;;;4.72;2.00;;;;;;;7.60;70.94;97554.63;5005532;28;103961;-74
2024/01/04 07:36:19;;;;;;;7.30;2.90;;;;;;;7.57;70.68;97563.69;4984824;28;104087;-74
2024/01/04 07:38:47;;;;;;;4.03;2.00;;;;;;;7.60;70.93;97562.53;4995357;28;103124;-74
2024/01/04 07:41:15;;;;;;;5.93;1.42;;;;;;;7.61;70.45;97585.22;5002113;28;102692;-72
2024/01/04 07:43:44;;;;;;;3.35;1.45;;;;;;;7.66;71.01;97580.25;4984950;28;104333;-75
2024/01/04 07:46:22;;;;;;;2.80;1.60;;;;;;;7.54;70.83;97586.94;4986886;28;102950;-73
2024/01/04 07:48:50;;;;;;;3.63;1.63;;;;;;;7.53;71.25;97593.19;4974189;28;103621;-72
2024/01/04 07:51:22;;;;;;;2.15;1.35;;;;;;;7.49;71.18;97584.00;4974026;28;104313;-75
2024/01/04 07:53:53;;;;;;;3.28;1.20;;;;;;;7.49;71.11;97592.72;4966866;28;103822;-75
2024/01/04 07:56:21;;;;;;;3.55;1.33;;;;;;;7.45;71.28;97586.16;4993347;28;103284;-74
2024/01/04 07:58:49;;;;;;;6.68;1.80;;;;;;;7.55;71.31;97593.84;4976344;28;102782;-74
2024/01/04 08:01:17;;;;;;;3.50;2.00;;;;;;;7.39;70.77;97582.44;4985814;28;103801;-77
2024/01/04 08:03:46;;;;;;;2.72;1.40;;;;;;;7.40;70.46;97588.50;4980806;28;103668;-73
2024/01/04 08:06:15;;;;;;;4.43;1.67;;;;;;;7.37;70.56;97589.69;5001403;28;103329;-72
2024/01/04 08:08:44;;;;;;;3.25;1.45;;;;;;;7.62;70.51;97592.13;4984835;28;102668;-74
2024/01/04 08:11:13;;;;;;;2.55;1.38;;;;;;;7.63;70.19;97594.59;5000170;28;104065;-73
2024/01/04 08:13:42;;;;;;;4.30;1.58;;;;;;;7.65;69.18;97597.06;4997843;28;104068;-74
2024/01/04 08:16:10;;;;;;;5.55;1.60;;;;;;;7.77;69.05;97595.66;4998623;28;103391;-74
2024/01/04 08:18:39;;;;;;;4.45;2.10;;;;;;;7.94;68.21;97596.34;4999801;28;102647;-73
2024/01/04 08:21:08;;;;;;;4.60;1.80;;;;;;;8.05;67.18;97602.19;5003723;28;102623;-74
2024/01/04 08:23:36;;;;;;;7.00;1.85;;;;;;;8.31;67.48;97596.47;5001817;28;103305;-73
2024/01/04 08:26:07;;;;;;;5.93;2.08;;;;;;;8.49;66.68;97597.97;4995804;28;103205;-74
2024/01/04 08:28:36;;;;;;;4.22;1.63;;;;;;;8.64;65.71;97596.16;5000617;28;102672;-74
2024/01/04 08:31:05;;;;;;;9.65;2.60;;;;;;;8.53;65.53;97599.25;5003537;28;102892;-74
2024/01/04 08:33:34;;;;;;;5.95;2.28;;;;;;;8.72;65.27;97598.69;4966576;28;103221;-74
2024/01/04 08:36:03;;;;;;;5.22;2.08;;;;;;;8.89;64.94;97595.84;4978398;28;103142;-74
2024/01/04 08:38:34;;;;;;;3.60;1.80;;;;;;;8.94;64.38;97602.22;4980579;28;103056;-74
2024/01/04 08:41:02;;;;;;;3.70;1.52;;;;;;;9.04;63.72;97612.50;5002474;28;103599;-74
2024/01/04 08:43:30;;;;;;;5.75;2.03;;;;;;;9.12;63.40;97612.38;4978311;28;103846;-72
2024/01/04 08:45:59;;;;;;;4.85;1.95;;;;;;;8.98;62.64;97621.16;4981261;28;102693;-71
2024/01/04 08:48:27;;;;;;;4.40;1.80;;;;;;;9.13;62.66;97619.31;4979687;28;103007;-71
2024/01/04 08:50:55;;;;;;;3.35;1.80;;;;;;;9.05;61.72;97630.00;4983945;28;103928;-70
2024/01/04 08:53:24;;;;;;;4.68;1.77;;;;;;;9.32;62.00;97625.00;4995037;28;103039;-71
2024/01/04 08:55:53;;;;;;;4.15;1.70;;;;;;;9.12;61.74;97640.66;4974703;28;103415;-72
2024/01/04 08:58:22;;;;;;;6.13;2.00;;;;;;;8.90;62.58;97648.47;4981762;28;102969;-73
2024/01/04 09:00:50;;;;;;;3.28;1.88;;;;;;;8.83;62.21;97657.31;4999417;28;102749;-73
2024/01/04 09:03:21;;;;;;;6.45;1.90;;;;;;;8.70;62.97;97650.88;4981756;28;103865;-72
2024/01/04 09:05:50;;;;;;;3.72;1.77;;;;;;;8.71;62.19;97655.16;5000842;28;104101;-71
2024/01/04 09:08:18;;;;;;;5.22;1.80;;;;;;;8.58;62.47;97663.69;4997858;28;102733;-72
2024/01/04 09:10:47;;;;;;;5.20;2.05;;;;;;;8.69;63.76;97666.88;4981576;28;103905;-75
2024/01/04 09:13:17;;;;;;;4.45;2.10;;;;;;;8.61;62.51;97660.69;4984637;28;104025;-74
2024/01/04 09:15:46;;;;;;;7.22;1.90;;;;;;;8.49;63.27;97664.78;4982408;28;103324;-73
2024/01/04 09:18:15;;;;;;;3.67;2.00;;;;;;;8.46;63.83;97663.31;4979535;28;102710;-73
2024/01/04 09:20:43;;;;;;;5.43;2.00;;;;;;;8.51;63.16;97665.41;4999653;28;104083;-73
2024/01/04 09:23:11;;;;;;;5.90;2.22;;;;;;;8.56;62.55;97670.16;4997839;28;103214;-73
2024/01/04 09:25:39;;;;;;;5.05;2.05;;;;;;;8.84;61.51;97669.53;4999382;28;103298;-73
2024/01/04 09:28:07;;;;;;;4.60;2.33;;;;;;;8.78;61.95;97671.88;4981156;28;102674;-74
2024/01/04 09:30:39;;;;;;;4.30;1.90;;;;;;;8.79;61.82;97675.38;4977886;28;103275;-73
2024/01/04 09:33:08;;;;;;;4.55;1.98;;;;;;;8.96;61.24;97670.69;4998042;28;104322;-73
2024/01/04 09:35:36;;;;;;;3.45;1.92;;;;;;;9.24;61.27;97675.34;4998321;28;103286;-73
2024/01/04 09:38:08;;;;;;;5.20;2.10;;;;;;;9.45;60.83;97678.00;4999009;28;102600;-74
2024/01/04 09:40:36;;;;;;;4.68;1.85;;;;;;;9.40;59.80;97680.38;4999952;28;102597;-72
2024/01/04 09:43:05;;;;;;;8.05;1.98;;;;;;;9.27;60.33;97682.88;4994317;28;103269;-74
2024/01/04 09:45:36;;;;;;;5.18;2.08;;;;;;;9.39;60.61;97689.34;4978282;28;104374;-74
2024/01/04 09:48:10;;;;;;;5.45;1.85;;;;;;;9.19;59.75;97690.91;4979605;28;102646;-74
2024/01/04 09:50:55;;;;;;;5.32;2.00;;;;;;;9.35;60.13;97693.34;4989809;28;102658;-74
2024/01/04 09:53:27;;;;;;;6.03;2.00;;;;;;;9.37;59.77;97709.03;4995699;28;102682;-73
2024/01/04 09:55:56;;;;;;;5.40;1.95;;;;;;;9.23;60.18;97695.63;4995129;28;104384;-73
2024/01/04 09:58:25;;;;;;;4.32;1.90;;;;;;;9.19;60.75;97714.69;4996178;28;102698;-73
2024/01/04 10:00:54;;;;;;;6.00;2.08;;;;;;;9.36;59.50;97729.34;5001061;28;103603;-73
2024/01/04 10:03:25;;;;;;;3.25;1.50;;;;;;;9.49;59.79;97733.16;4980148;28;104351;-74
2024/01/04 10:05:56;;;;;;;4.30;1.77;;;;;;;9.28;60.60;97740.81;4995509;28;103771;-73
2024/01/04 10:08:34;;;;;;;3.42;1.63;;;;;;;9.09;61.13;97731.63;4975703;28;102622;-73
2024/01/04 10:11:10;;;;;;;6.15;1.80;;;;;;;9.03;61.74;97737.63;4996956;28;102609;-73
2024/01/04 10:13:40;;;;;;;3.63;1.50;;;;;;;8.93;61.65;97737.09;4998676;28;103891;-74
2024/01/04 10:16:08;;;;;;;4.45;2.00;;;;;;;9.02;62.02;97751.03;4993715;28;103263;-73
2024/01/04 10:18:40;;;;;;;3.78;1.80;;;;;;;8.79;62.36;97742.19;5001133;28;102765;-73
2024/01/04 10:21:10;;;;;;;5.75;2.22;;;;;;;8.69;62.72;97748.72;4986992;28;103917;-74
2024/01/04 10:23:38;;;;;;;6.18;1.67;;;;;;;8.54;63.53;97756.59;4979985;28;104164;-73
2024/01/04 10:26:08;;;;;;;5.40;2.00;;;;;;;8.74;63.77;97759.56;5004598;28;103216;-74
2024/01/04 10:28:38;;;;;;;3.72;1.60;;;;;;;8.78;63.56;97766.94;4985315;28;102747;-74
2024/01/04 10:31:07;;;;;;;2.95;1.75;;;;;;;8.54;64.30;97769.78;4980082;28;102617;-73
2024/01/04 10:33:36;;;;;;;2.63;1.30;;;;;;;8.46;64.84;97773.31;4983406;28;104285;-71
2024/01/04 10:36:10;;;;;;;2.20;1.60;;;;;;;8.34;64.44;97785.25;4991860;28;102584;-72
2024/01/04 10:38:39;;;;;;;3.30;1.70;;;;;;;8.28;64.57;97781.53;4997325;28;103530;-72
2024/01/04 10:41:07;;;;;;;3.25;1.58;;;;;;;8.30;65.06;97777.72;4999241;28;103023;-72
2024/01/04 10:43:35;;;;;;;8.57;2.20;;;;;;;8.31;64.71;97781.16;4982138;28;104139;-72
2024/01/04 10:46:07;;;;;;;3.55;1.92;;;;;;;8.15;64.98;97784.72;5004776;28;103213;-75
2024/01/04 10:48:38;;;;;;;5.20;1.60;;;;;;;8.15;65.33;97776.81;5004635;28;102882;-75
2024/01/04 10:51:09;;;;;;;2.30;1.27;;;;;;;8.31;65.77;97786.44;4983975;28;103055;-72
2024/01/04 10:53:47;;;;;;;3.47;1.63;;;;;;;8.21;66.46;97786.66;4994951;28;102601;-73
2024/01/04 10:56:16;;;;;;;3.70;1.65;;;;;;;8.29;66.31;97777.84;4997691;28;104368;-73
2024/01/04 10:58:49;;;;;;;2.60;1.50;;;;;;;8.65;65.30;97777.28;4995242;28;102753;-72
2024/01/04 11:01:17;;;;;;;2.92;1.65;;;;;;;8.71;64.47;97781.88;4998615;28;102702;-72
2024/01/04 11:03:48;;;;;;;4.55;2.17;;;;;;;8.85;65.02;97777.59;4979712;28;103071;-72
2024/01/04 11:06:17;;;;;;;2.97;1.50;;;;;;;9.06;63.26;97774.25;4980462;28;103506;-71
2024/01/04 11:08:49;;;;;;;4.90;1.70;;;;;;;9.13;63.53;97777.81;4994673;28;102734;-71
2024/01/04 11:11:18;;;;;;;4.80;1.65;;;;;;;9.35;62.97;97788.47;4985567;28;103617;-71
2024/01/04 11:13:46;;;;;;;4.18;1.40;;;;;;;9.32;62.80;97780.09;4978315;28;104097;-72
2024/01/04 11:16:27;;;;;;;4.30;2.03;;;;;;;9.25;63.03;97785.31;4994551;28;103327;-71
2024/01/04 11:19:07;;;;;;;1.17;1.08;;;;;;;9.31;62.33;97786.38;4994463;28;102644;-71
2024/01/04 11:22:02;;;;;;;2.25;1.60;;;;;;;9.31;62.85;97781.91;5004247;28;102964;-73
2024/01/04 11:24:44;;;;;;;1.92;1.30;;;;;;;9.14;63.40;97789.19;4988676;28;103283;-74
2024/01/04 11:27:17;;;;;;;2.30;1.20;;;;;;;8.89;63.59;97778.06;4996959;28;103245;-74
2024/01/04 11:29:48;;;;;;;1.40;1.17;;;;;;;9.09;63.76;97789.75;5001369;28;102619;-74
2024/01/04 11:32:16;;;;;;;2.15;1.30;;;;;;;8.95;63.97;97790.56;4978106;28;102893;-73
2024/01/04 11:34:44;;;;;;;2.17;1.15;;;;;;;8.79;64.24;97794.97;4984579;28;103108;-72
2024/01/04 11:37:17;;;;;;;1.95;1.10;;;;;;;8.66;64.44;97783.38;4987308;28;103436;-73
2024/01/04 11:39:56;;;;;;;2.40;1.08;;;;;;;8.68;65.15;97792.75;4967260;28;102750;-73
2024/01/04 11:42:36;;;;;;;1.80;1.25;;;;;;;8.52;66.17;97777.09;4969772;28;103444;-72
2024/01/04 11:45:06;;;;;;;2.25;1.27;;;;;;;8.45;66.34;97777.78;4970668;28;104544;-73